Time,TemperatureF,DewpointF,PressureIn,WindDirection,WindDirectionDegrees,WindSpeedMPH,WindSpeedGustMPH,Humidity,HourlyPrecipIn,Conditions,Clouds,dailyrainin,SoftwareType,DateUTC
2013-09-14 00:03:00,56.1,35.6,30.06,NNE,26,0.0,0.0,46,0.00,,,0.00,WeatherDisplay:10.37,2013-09-14 07:03:00,
2013-09-14 00:08:00,56.1,35.6,30.06,NNE,26,0.0,0.0,46,0.00,,,0.00,WeatherDisplay:10.37,2013-09-14 07:08:00,
2013-09-14 00:13:00,56.3,35.2,30.06,NNE,26,0.0,0.0,45,0.00,,,0.00,WeatherDisplay:10.37,2013-09-14 07:13:00,
2013-09-14 00:23:00,56.3,34.1,30.06,NNE,26,0.0,0.0,43,0.00,,,0.00,WeatherDisplay:10.37,2013-09-14 07:23:00,
2013-09-14 00:33:00,56.0,32.6,30.06,NNE,26,0.0,0.0,41,0.00,,,0.00,WeatherDisplay:10.37,2013-09-14 07:33:00,
2013-09-14 00:38:00,55.9,32.6,30.06,NNE,26,0.0,0.0,41,0.00,,,0.00,WeatherDisplay:10.37,2013-09-14 07:38:00,
2013-09-14 00:43:00,55.8,33.0,30.06,NNE,26,0.0,0.0,42,0.00,,,0.00,WeatherDisplay:10.37,2013-09-14 07:43:00,
2013-09-14 00:53:00,55.8,33.0,30.06,NNE,26,0.0,0.0,42,0.00,,,0.00,WeatherDisplay:10.37,2013-09-14 07:53:00,
2013-09-14 00:58:00,55.8,33.0,30.06,NNE,26,0.0,0.0,42,0.00,,,0.00,WeatherDisplay:10.37,2013-09-14 07:58:00,
2013-09-14 01:03:00,55.8,33.6,30.06,NNE,26,0.0,0.0,43,0.00,,,0.00,WeatherDisplay:10.37,2013-09-14 08:03:00,
2013-09-14 01:08:00,55.9,33.7,30.06,NNE,26,0.0,0.0,43,0.00,,,0.00,WeatherDisplay:10.37,2013-09-14 08:08:00,
2013-09-14 01:13:00,55.6,33.4,30.06,NNE,26,0.0,0.0,43,0.00,,,0.00,WeatherDisplay:10.37,2013-09-14 08:13:00,
2013-09-14 01:18:00,55.6,33.4,30.06,NNE,26,0.0,0.0,43,0.00,,,0.00,WeatherDisplay:10.37,2013-09-14 08:18:00,
2013-09-14 01:23:00,55.4,33.3,30.06,NNE,26,0.0,0.0,43,0.00,,,0.00,WeatherDisplay:10.37,2013-09-14 08:23:00,
2013-09-14 01:28:00,55.2,32.5,30.06,NNE,26,0.0,0.0,42,0.00,,,0.00,WeatherDisplay:10.37,2013-09-14 08:28:00,
2013-09-14 01:33:00,55.4,32.1,30.06,NNE,26,0.0,0.0,41,0.00,,,0.00,WeatherDisplay:10.37,2013-09-14 08:33:00,
2013-09-14 01:38:00,55.8,31.8,30.06,NNE,26,0.0,0.0,40,0.00,,,0.00,WeatherDisplay:10.37,2013-09-14 08:38:00,
2013-09-14 01:43:00,55.9,31.9,30.06,NNE,26,0.0,0.0,40,0.00,,,0.00,WeatherDisplay:10.37,2013-09-14 08:43:00,
2013-09-14 01:48:00,55.9,32.6,30.06,NNE,26,0.0,0.0,41,0.00,,,0.00,WeatherDisplay:10.37,2013-09-14 08:48:00,
2013-09-14 01:53:00,55.8,32.4,30.06,NNE,26,0.0,0.0,41,0.00,,,0.00,WeatherDisplay:10.37,2013-09-14 08:53:00,
2013-09-14 01:58:00,55.6,32.2,30.06,NNE,26,0.0,0.0,41,0.00,,,0.00,WeatherDisplay:10.37,2013-09-14 08:58:00,
2013-09-14 02:03:00,55.4,32.1,30.06,NNE,26,0.0,0.0,41,0.00,,,0.00,WeatherDisplay:10.37,2013-09-14 09:03:00,
2013-09-14 02:08:00,55.2,33.1,30.06,NNE,26,0.0,0.0,43,0.00,,,0.00,WeatherDisplay:10.37,2013-09-14 09:08:00,
2013-09-14 02:13:00,55.0,34.1,30.06,NNE,26,0.0,0.0,45,0.00,,,0.00,WeatherDisplay:10.37,2013-09-14 09:13:00,
2013-09-14 02:18:00,54.9,34.5,30.06,NNE,26,0.0,0.0,46,0.00,,,0.00,WeatherDisplay:10.37,2013-09-14 09:18:00,
2013-09-14 02:23:00,54.8,35.0,30.06,NNE,26,0.0,0.0,47,0.00,,,0.00,WeatherDisplay:10.37,2013-09-14 09:23:00,
2013-09-14 02:33:00,54.4,35.1,30.06,NNE,26,0.0,0.0,48,0.00,,,0.00,WeatherDisplay:10.37,2013-09-14 09:33:00,
2013-09-14 02:38:00,54.3,34.5,30.06,NNE,26,0.0,0.0,47,0.00,,,0.00,WeatherDisplay:10.37,2013-09-14 09:38:00,
2013-09-14 02:43:00,54.1,34.3,30.06,NNE,26,0.0,0.0,47,0.00,,,0.00,WeatherDisplay:10.37,2013-09-14 09:43:00,
2013-09-14 02:48:00,54.1,33.8,30.06,NNE,26,0.0,0.0,46,0.00,,,0.00,WeatherDisplay:10.37,2013-09-14 09:48:00,
2013-09-14 02:53:00,54.3,33.4,30.06,NNE,26,0.0,0.0,45,0.00,,,0.00,WeatherDisplay:10.37,2013-09-14 09:53:00,
2013-09-14 02:58:00,54.3,33.4,30.06,NNE,26,0.0,0.0,45,0.00,,,0.00,WeatherDisplay:10.37,2013-09-14 09:58:00,
2013-09-14 03:03:00,54.3,33.4,30.06,NNE,26,0.0,0.0,45,0.00,,,0.00,WeatherDisplay:10.37,2013-09-14 10:03:00,
2013-09-14 03:08:00,54.5,33.0,30.06,NNE,26,0.0,0.0,44,0.00,,,0.00,WeatherDisplay:10.37,2013-09-14 10:08:00,
2013-09-14 03:13:00,54.5,32.4,30.06,NNE,26,0.0,0.0,43,0.00,,,0.00,WeatherDisplay:10.37,2013-09-14 10:13:00,
2013-09-14 03:18:00,54.5,33.0,30.06,NNE,26,0.0,0.0,44,0.00,,,0.00,WeatherDisplay:10.37,2013-09-14 10:18:00,
2013-09-14 03:23:00,54.5,33.6,30.06,NNE,26,0.0,0.0,45,0.00,,,0.00,WeatherDisplay:10.37,2013-09-14 10:23:00,
2013-09-14 03:28:00,54.5,33.6,30.03,NNE,26,0.0,0.0,45,0.00,,,0.00,WeatherDisplay:10.37,2013-09-14 10:28:00,
2013-09-14 03:33:00,54.7,34.3,30.03,NNE,26,0.0,0.0,46,0.00,,,0.00,WeatherDisplay:10.37,2013-09-14 10:33:00,
2013-09-14 03:38:00,54.7,33.7,30.03,NNE,26,0.0,0.0,45,0.00,,,0.00,WeatherDisplay:10.37,2013-09-14 10:38:00,
2013-09-14 03:43:00,54.3,34.0,30.03,NNE,26,0.0,0.0,46,0.00,,,0.00,WeatherDisplay:10.37,2013-09-14 10:43:00,
2013-09-14 03:48:00,54.0,34.7,30.03,NNE,26,0.0,0.0,48,0.00,,,0.00,WeatherDisplay:10.37,2013-09-14 10:48:00,
2013-09-14 03:53:00,53.8,34.6,30.03,NNE,26,0.0,0.0,48,0.00,,,0.00,WeatherDisplay:10.37,2013-09-14 10:53:00,
2013-09-14 03:58:00,53.8,34.0,30.03,NNE,26,0.0,0.0,47,0.00,,,0.00,WeatherDisplay:10.37,2013-09-14 10:58:00,
2013-09-14 04:03:00,53.8,34.0,30.03,NNE,26,0.0,0.0,47,0.00,,,0.00,WeatherDisplay:10.37,2013-09-14 11:03:00,
2013-09-14 04:08:00,53.7,34.0,30.03,NNE,26,0.0,0.0,47,0.00,,,0.00,WeatherDisplay:10.37,2013-09-14 11:08:00,
2013-09-14 04:13:00,53.6,33.8,30.03,NNE,26,0.0,0.0,47,0.00,,,0.00,WeatherDisplay:10.37,2013-09-14 11:13:00,
2013-09-14 04:18:00,53.6,33.8,30.03,NNE,26,0.0,0.0,47,0.00,,,0.00,WeatherDisplay:10.37,2013-09-14 11:18:00,
2013-09-14 04:23:00,53.6,33.3,30.03,NNE,26,0.0,0.0,46,0.00,,,0.00,WeatherDisplay:10.37,2013-09-14 11:23:00,
2013-09-14 04:33:00,53.8,34.0,30.03,NNE,26,0.0,0.0,47,0.00,,,0.00,WeatherDisplay:10.37,2013-09-14 11:33:00,
2013-09-14 04:38:00,53.6,33.8,30.03,NNE,26,0.0,0.0,47,0.00,,,0.00,WeatherDisplay:10.37,2013-09-14 11:38:00,
2013-09-14 04:43:00,53.4,34.2,30.03,NNE,26,0.0,0.0,48,0.00,,,0.00,WeatherDisplay:10.37,2013-09-14 11:43:00,
2013-09-14 04:48:00,53.4,34.2,30.03,NNE,26,0.0,0.0,48,0.00,,,0.00,WeatherDisplay:10.37,2013-09-14 11:48:00,
2013-09-14 04:53:00,53.2,36.5,30.03,NNE,26,0.0,0.0,53,0.00,,,0.00,WeatherDisplay:10.37,2013-09-14 11:53:00,
2013-09-14 04:58:00,53.2,38.8,30.03,NNE,26,0.0,0.0,58,0.00,,,0.00,WeatherDisplay:10.37,2013-09-14 11:58:00,
2013-09-14 05:03:00,53.1,39.1,30.03,NNE,26,0.0,0.0,59,0.00,,,0.00,WeatherDisplay:10.37,2013-09-14 12:03:00,
2013-09-14 05:08:00,53.1,39.5,30.03,NNE,26,0.0,0.0,60,0.00,,,0.00,WeatherDisplay:10.37,2013-09-14 12:08:00,
2013-09-14 05:13:00,52.7,37.9,30.03,NNE,26,0.0,0.0,57,0.00,,,0.00,WeatherDisplay:10.37,2013-09-14 12:13:00,
2013-09-14 05:23:00,52.5,36.3,30.03,NNE,26,0.0,0.0,54,0.00,,,0.00,WeatherDisplay:10.37,2013-09-14 12:23:00,
2013-09-14 05:28:00,52.7,35.6,30.03,NNE,26,0.0,0.0,52,0.00,,,0.00,WeatherDisplay:10.37,2013-09-14 12:28:00,
2013-09-14 05:33:00,53.1,34.9,30.03,NNE,26,0.0,0.0,50,0.00,,,0.00,WeatherDisplay:10.37,2013-09-14 12:33:00,
2013-09-14 05:38:00,53.4,35.2,30.03,NNE,26,0.0,0.0,50,0.00,,,0.00,WeatherDisplay:10.37,2013-09-14 12:38:00,
2013-09-14 05:43:00,53.4,34.7,30.03,NNE,26,0.0,0.0,49,0.00,,,0.00,WeatherDisplay:10.37,2013-09-14 12:43:00,
2013-09-14 05:53:00,53.2,35.1,30.03,NNE,26,0.0,0.0,50,0.00,,,0.00,WeatherDisplay:10.37,2013-09-14 12:53:00,
2013-09-14 05:58:00,52.9,34.2,30.06,NNE,26,0.0,0.0,49,0.00,,,0.00,WeatherDisplay:10.37,2013-09-14 12:58:00,
2013-09-14 06:03:00,52.7,34.1,30.06,NNE,26,0.0,0.0,49,0.00,,,0.00,WeatherDisplay:10.37,2013-09-14 13:03:00,
2013-09-14 06:08:00,52.7,34.1,30.06,NNE,26,0.0,0.0,49,0.00,,,0.00,WeatherDisplay:10.37,2013-09-14 13:08:00,
2013-09-14 06:13:00,52.9,34.2,30.06,NNE,26,0.0,0.0,49,0.00,,,0.00,WeatherDisplay:10.37,2013-09-14 13:13:00,
2013-09-14 06:18:00,52.9,33.7,30.06,NNE,26,0.0,0.0,48,0.00,,,0.00,WeatherDisplay:10.37,2013-09-14 13:18:00,
2013-09-14 06:23:00,53.1,33.3,30.06,NNE,26,0.0,0.0,47,0.00,,,0.00,WeatherDisplay:10.37,2013-09-14 13:23:00,
2013-09-14 06:28:00,53.1,33.3,30.06,NNE,26,0.0,0.0,47,0.00,,,0.00,WeatherDisplay:10.37,2013-09-14 13:28:00,
2013-09-14 06:33:00,53.2,33.5,30.06,NNE,26,0.0,0.0,47,0.00,,,0.00,WeatherDisplay:10.37,2013-09-14 13:33:00,
2013-09-14 06:43:00,53.0,33.8,30.06,NNE,26,0.0,0.0,48,0.00,,,0.00,WeatherDisplay:10.37,2013-09-14 13:43:00,
2013-09-14 06:48:00,52.7,34.6,30.06,NNE,26,0.0,0.0,50,0.00,,,0.00,WeatherDisplay:10.37,2013-09-14 13:48:00,
2013-09-14 06:53:00,52.7,34.1,30.06,NNE,25,0.0,0.0,49,0.00,,,0.00,WeatherDisplay:10.37,2013-09-14 13:53:00,
2013-09-14 06:58:00,52.9,33.7,30.06,NNE,25,0.0,0.0,48,0.00,,,0.00,WeatherDisplay:10.37,2013-09-14 13:58:00,
2013-09-14 07:03:00,53.2,34.0,30.06,NNE,25,0.0,0.0,48,0.00,,,0.00,WeatherDisplay:10.37,2013-09-14 14:03:00,
2013-09-14 07:08:00,53.6,34.4,30.06,NNE,25,0.0,0.0,48,0.00,,,0.00,WeatherDisplay:10.37,2013-09-14 14:08:00,
2013-09-14 07:13:00,53.8,34.6,30.06,NNE,25,0.0,0.0,48,0.00,,,0.00,WeatherDisplay:10.37,2013-09-14 14:13:00,
2013-09-14 07:18:00,54.1,34.3,30.06,NNE,25,0.0,0.0,47,0.00,,,0.00,WeatherDisplay:10.37,2013-09-14 14:18:00,
2013-09-14 07:23:00,54.4,34.6,30.06,NNE,25,0.0,0.0,47,0.00,,,0.00,WeatherDisplay:10.37,2013-09-14 14:23:00,
2013-09-14 07:33:00,55.0,35.2,30.06,NNE,25,0.0,0.0,47,0.00,,,0.00,WeatherDisplay:10.37,2013-09-14 14:33:00,
2013-09-14 07:38:00,55.5,35.0,30.06,NNE,25,0.0,0.0,46,0.00,,,0.00,WeatherDisplay:10.37,2013-09-14 14:38:00,
2013-09-14 07:43:00,56.0,35.5,30.06,NNE,25,0.0,0.0,46,0.00,,,0.00,WeatherDisplay:10.37,2013-09-14 14:43:00,
2013-09-14 07:48:00,56.7,35.5,30.06,NNE,25,0.0,0.0,45,0.00,,,0.00,WeatherDisplay:10.37,2013-09-14 14:48:00,
2013-09-14 07:53:00,57.2,36.0,30.06,NNE,25,0.0,0.0,45,0.00,,,0.00,WeatherDisplay:10.37,2013-09-14 14:53:00,
2013-09-14 07:58:00,57.6,36.4,30.06,NNE,25,0.0,0.0,45,0.00,,,0.00,WeatherDisplay:10.37,2013-09-14 14:58:00,
2013-09-14 08:08:00,58.5,37.2,30.06,NNE,25,0.0,0.0,45,0.00,,,0.00,WeatherDisplay:10.37,2013-09-14 15:08:00,
2013-09-14 08:13:00,58.9,37.6,30.06,NNE,25,0.0,0.0,45,0.00,,,0.00,WeatherDisplay:10.37,2013-09-14 15:13:00,
2013-09-14 08:23:00,59.9,37.3,30.06,NNE,25,0.0,0.0,43,0.00,,,0.00,WeatherDisplay:10.37,2013-09-14 15:23:00,
2013-09-14 08:33:00,61.5,38.1,30.06,NNE,25,0.0,0.0,42,0.00,,,0.00,WeatherDisplay:10.37,2013-09-14 15:33:00,
2013-09-14 08:38:00,62.4,39.0,30.06,NNE,25,0.0,0.0,42,0.00,,,0.00,WeatherDisplay:10.37,2013-09-14 15:38:00,
2013-09-14 08:43:00,63.3,38.6,30.06,NNE,25,0.0,0.0,40,0.00,,,0.00,WeatherDisplay:10.37,2013-09-14 15:43:00,
2013-09-14 08:53:00,65.1,38.8,30.06,NNE,25,0.0,0.0,38,0.00,,,0.00,WeatherDisplay:10.37,2013-09-14 15:53:00,
2013-09-14 08:58:00,65.9,38.9,30.06,NNE,25,0.0,0.0,37,0.00,,,0.00,WeatherDisplay:10.37,2013-09-14 15:58:00,
2013-09-14 09:03:00,66.6,40.1,30.06,NNE,25,0.0,0.0,38,0.00,,,0.00,WeatherDisplay:10.37,2013-09-14 16:03:00,
2013-09-14 09:08:00,67.2,40.7,30.06,NNW,346,0.0,0.0,38,0.00,,,0.00,WeatherDisplay:10.37,2013-09-14 16:08:00,
2013-09-14 09:13:00,68.0,40.0,30.06,WSW,253,0.0,0.0,36,0.00,,,0.00,WeatherDisplay:10.37,2013-09-14 16:13:00,
2013-09-14 09:18:00,68.8,39.3,30.06,SW,226,0.0,0.0,34,0.00,,,0.00,WeatherDisplay:10.37,2013-09-14 16:18:00,
2013-09-14 09:23:00,69.8,39.3,30.06,SSW,204,0.0,0.0,33,0.00,,,0.00,WeatherDisplay:10.37,2013-09-14 16:23:00,
2013-09-14 09:33:00,71.4,40.0,30.06,SW,216,0.0,0.0,32,0.00,,,0.00,WeatherDisplay:10.37,2013-09-14 16:33:00,
2013-09-14 09:38:00,72.1,38.1,30.06,SW,221,0.0,0.0,29,0.00,,,0.00,WeatherDisplay:10.37,2013-09-14 16:38:00,
2013-09-14 09:43:00,72.9,36.0,30.06,SW,217,2.0,3.0,26,0.00,,,0.00,WeatherDisplay:10.37,2013-09-14 16:43:00,
2013-09-14 09:53:00,74.7,36.5,30.06,SSW,206,0.0,0.0,25,0.00,,,0.00,WeatherDisplay:10.37,2013-09-14 16:53:00,
2013-09-14 10:03:00,75.2,35.9,30.06,SW,230,3.0,5.0,24,0.00,,,0.00,WeatherDisplay:10.37,2013-09-14 17:03:00,
2013-09-14 10:08:00,75.0,35.8,30.06,SW,229,2.0,4.0,24,0.00,,,0.00,WeatherDisplay:10.37,2013-09-14 17:08:00,
2013-09-14 10:13:00,75.2,35.9,30.06,SW,231,3.0,6.0,24,0.00,,,0.00,WeatherDisplay:10.37,2013-09-14 17:13:00,
2013-09-14 10:23:00,75.9,35.4,30.06,SW,219,3.0,6.0,23,0.00,,,0.00,WeatherDisplay:10.37,2013-09-14 17:23:00,
2013-09-14 10:28:00,76.3,35.7,30.06,SW,215,3.0,4.0,23,0.00,,,0.00,WeatherDisplay:10.37,2013-09-14 17:28:00,
2013-09-14 10:33:00,76.5,35.9,30.06,SSW,203,0.0,6.0,23,0.00,,,0.00,WeatherDisplay:10.37,2013-09-14 17:33:00,
2013-09-14 10:43:00,77.4,35.5,30.06,SSW,206,2.0,6.0,22,0.00,,,0.00,WeatherDisplay:10.37,2013-09-14 17:43:00,
2013-09-14 10:53:00,77.7,35.8,30.06,SSW,213,3.0,5.0,22,0.00,,,0.00,WeatherDisplay:10.37,2013-09-14 17:53:00,
2013-09-14 10:58:00,78.2,36.2,30.06,SSW,211,0.0,4.0,22,0.00,,,0.00,WeatherDisplay:10.37,2013-09-14 17:58:00,
2013-09-14 11:08:00,78.6,35.4,30.06,SW,221,2.0,4.0,21,0.00,,,0.00,WeatherDisplay:10.37,2013-09-14 18:08:00,
2013-09-14 11:13:00,78.6,35.4,30.06,SW,216,2.0,4.0,21,0.00,,,0.00,WeatherDisplay:10.37,2013-09-14 18:13:00,
2013-09-14 11:18:00,78.4,35.2,30.06,SSW,211,1.0,6.0,21,0.00,,,0.00,WeatherDisplay:10.37,2013-09-14 18:18:00,
2013-09-14 11:23:00,78.3,35.1,30.06,SW,222,5.0,8.0,21,0.00,,,0.00,WeatherDisplay:10.37,2013-09-14 18:23:00,
2013-09-14 11:33:00,78.3,35.1,30.06,West,268,3.0,4.0,21,0.00,,,0.00,WeatherDisplay:10.37,2013-09-14 18:33:00,
2013-09-14 11:38:00,79.0,35.7,30.06,West,269,1.0,8.0,21,0.00,,,0.00,WeatherDisplay:10.37,2013-09-14 18:38:00,
2013-09-14 11:43:00,79.2,35.8,30.06,West,264,3.0,6.0,21,0.00,,,0.00,WeatherDisplay:10.37,2013-09-14 18:43:00,
2013-09-14 11:48:00,79.5,36.1,30.06,North,358,1.0,6.0,21,0.00,,,0.00,WeatherDisplay:10.37,2013-09-14 18:48:00,
2013-09-14 11:53:00,79.9,36.5,30.06,NNW,335,3.0,7.0,21,0.00,,,0.00,WeatherDisplay:10.37,2013-09-14 18:53:00,
2013-09-14 12:03:00,80.2,36.7,30.06,ESE,116,1.0,6.0,21,0.00,,,0.00,WeatherDisplay:10.37,2013-09-14 19:03:00,
2013-09-14 12:08:00,79.3,36.0,30.06,ENE,57,0.0,6.0,21,0.00,,,0.00,WeatherDisplay:10.37,2013-09-14 19:08:00,
2013-09-14 12:13:00,78.9,35.6,30.06,WNW,297,3.0,6.0,21,0.00,,,0.00,WeatherDisplay:10.37,2013-09-14 19:13:00,
2013-09-14 12:18:00,78.3,35.1,30.06,WSW,258,1.0,6.0,21,0.00,,,0.00,WeatherDisplay:10.37,2013-09-14 19:18:00,
2013-09-14 12:23:00,78.5,35.3,30.06,WSW,258,0.0,6.0,21,0.00,,,0.00,WeatherDisplay:10.37,2013-09-14 19:23:00,
2013-09-14 12:33:00,77.2,34.2,30.06,NNE,15,3.0,6.0,21,0.00,,,0.00,WeatherDisplay:10.37,2013-09-14 19:33:00,
2013-09-14 12:43:00,76.1,34.5,30.06,NNW,334,0.0,6.0,22,0.00,,,0.00,WeatherDisplay:10.37,2013-09-14 19:43:00,
2013-09-14 12:48:00,76.5,34.8,30.06,WNW,292,1.0,4.0,22,0.00,,,0.00,WeatherDisplay:10.37,2013-09-14 19:48:00,
2013-09-14 12:53:00,77.0,34.1,30.06,ENE,60,1.0,6.0,21,0.00,,,0.00,WeatherDisplay:10.37,2013-09-14 19:53:00,
2013-09-14 13:03:00,76.5,34.8,30.06,NNE,12,0.0,0.0,22,0.00,,,0.00,WeatherDisplay:10.37,2013-09-14 20:03:00,
2013-09-14 13:08:00,77.0,34.1,30.06,North,1,1.0,4.0,21,0.00,,,0.00,WeatherDisplay:10.37,2013-09-14 20:08:00,
2013-09-14 13:13:00,76.7,35.0,30.06,West,269,1.0,4.0,22,0.00,,,0.00,WeatherDisplay:10.37,2013-09-14 20:13:00,
2013-09-14 13:18:00,76.1,34.5,30.06,SW,215,0.0,3.0,22,0.00,,,0.00,WeatherDisplay:10.37,2013-09-14 20:18:00,
2013-09-14 13:23:00,75.7,34.2,30.06,SW,220,0.0,4.0,22,0.00,,,0.00,WeatherDisplay:10.37,2013-09-14 20:23:00,
2013-09-14 13:28:00,75.4,33.9,30.06,WSW,253,3.0,6.0,22,0.00,,,0.00,WeatherDisplay:10.37,2013-09-14 20:28:00,
2013-09-14 13:33:00,75.6,34.0,30.06,WNW,300,5.0,6.0,22,0.00,,,0.00,WeatherDisplay:10.37,2013-09-14 20:33:00,
2013-09-14 13:38:00,76.3,34.6,30.06,NW,325,0.0,5.0,22,0.00,,,0.00,WeatherDisplay:10.37,2013-09-14 20:38:00,
2013-09-14 13:43:00,77.3,34.3,30.06,North,357,1.0,5.0,21,0.00,,,0.00,WeatherDisplay:10.37,2013-09-14 20:43:00,
2013-09-14 13:53:00,77.9,34.8,30.06,SW,220,0.0,4.0,21,0.00,,,0.00,WeatherDisplay:10.37,2013-09-14 20:53:00,
2013-09-14 13:58:00,77.9,34.8,30.03,NNW,347,0.0,5.0,21,0.00,,,0.00,WeatherDisplay:10.37,2013-09-14 20:58:00,
2013-09-14 14:03:00,77.2,34.2,30.03,North,351,0.0,0.0,21,0.00,,,0.00,WeatherDisplay:10.37,2013-09-14 21:03:00,
2013-09-14 14:08:00,77.7,34.7,30.03,SW,214,1.0,6.0,21,0.00,,,0.00,WeatherDisplay:10.37,2013-09-14 21:08:00,
2013-09-14 14:13:00,77.2,34.2,30.03,NNE,31,1.0,8.0,21,0.00,,,0.00,WeatherDisplay:10.37,2013-09-14 21:13:00,
2013-09-14 14:23:00,76.1,34.5,30.03,North,8,1.0,6.0,22,0.00,,,0.00,WeatherDisplay:10.37,2013-09-14 21:23:00,
2013-09-14 14:28:00,76.1,34.5,30.03,North,4,0.0,8.0,22,0.00,,,0.00,WeatherDisplay:10.37,2013-09-14 21:28:00,
2013-09-14 14:33:00,75.4,33.9,30.03,NNE,17,0.0,3.0,22,0.00,,,0.00,WeatherDisplay:10.37,2013-09-14 21:33:00,
2013-09-14 14:38:00,75.4,33.9,30.03,North,9,0.0,4.0,22,0.00,,,0.00,WeatherDisplay:10.37,2013-09-14 21:38:00,
2013-09-14 14:43:00,75.2,33.7,30.03,North,351,1.0,5.0,22,0.00,,,0.00,WeatherDisplay:10.37,2013-09-14 21:43:00,
2013-09-14 14:53:00,75.0,34.7,30.03,NW,305,0.0,3.0,23,0.00,,,0.00,WeatherDisplay:10.37,2013-09-14 21:53:00,
2013-09-14 15:03:00,75.8,34.2,30.03,NW,324,1.0,4.0,22,0.00,,,0.00,WeatherDisplay:10.37,2013-09-14 22:03:00,
2013-09-14 15:08:00,76.8,35.1,30.03,NNW,337,0.0,4.0,22,0.00,,,0.00,WeatherDisplay:10.37,2013-09-14 22:08:00,
2013-09-14 15:13:00,77.4,34.4,30.03,NNE,18,3.0,6.0,21,0.00,,,0.00,WeatherDisplay:10.37,2013-09-14 22:13:00,
2013-09-14 15:18:00,76.9,35.1,30.03,North,11,1.0,4.0,22,0.00,,,0.00,WeatherDisplay:10.37,2013-09-14 22:18:00,
2013-09-14 15:23:00,76.5,34.8,30.03,NW,321,0.0,4.0,22,0.00,,,0.00,WeatherDisplay:10.37,2013-09-14 22:23:00,
2013-09-14 15:33:00,75.2,33.7,30.03,NNW,334,0.0,3.0,22,0.00,,,0.00,WeatherDisplay:10.37,2013-09-14 22:33:00,
2013-09-14 15:43:00,73.9,33.8,30.03,ENE,67,0.0,0.0,23,0.00,,,0.00,WeatherDisplay:10.37,2013-09-14 22:43:00,
2013-09-14 15:53:00,73.4,33.3,30.03,NNW,345,1.0,3.0,23,0.00,,,0.00,WeatherDisplay:10.37,2013-09-14 22:53:00,
2013-09-14 16:03:00,73.4,33.3,30.03,WSW,255,0.0,0.0,23,0.00,,,0.00,WeatherDisplay:10.37,2013-09-14 23:03:00,
2013-09-14 16:08:00,73.4,33.3,30.03,WSW,249,0.0,0.0,23,0.00,,,0.00,WeatherDisplay:10.37,2013-09-14 23:08:00,
2013-09-14 16:13:00,73.4,33.3,30.03,NNW,328,2.0,4.0,23,0.00,,,0.00,WeatherDisplay:10.37,2013-09-14 23:13:00,
2013-09-14 16:18:00,73.2,33.1,30.03,NNE,20,0.0,0.0,23,0.00,,,0.00,WeatherDisplay:10.37,2013-09-14 23:18:00,
2013-09-14 16:23:00,73.2,33.2,30.03,North,9,0.0,0.0,23,0.00,,,0.00,WeatherDisplay:10.37,2013-09-14 23:23:00,
2013-09-14 16:28:00,74.1,33.9,30.03,NW,326,1.0,4.0,23,0.00,,,0.00,WeatherDisplay:10.37,2013-09-14 23:28:00,
2013-09-14 16:33:00,74.7,34.4,30.03,NNW,336,1.0,4.0,23,0.00,,,0.00,WeatherDisplay:10.37,2013-09-14 23:33:00,
2013-09-14 16:43:00,74.7,34.4,30.03,North,1,0.0,3.0,23,0.00,,,0.00,WeatherDisplay:10.37,2013-09-14 23:43:00,
2013-09-14 16:48:00,74.1,33.9,30.03,East,85,0.0,2.0,23,0.00,,,0.00,WeatherDisplay:10.37,2013-09-14 23:48:00,
2013-09-14 16:53:00,73.6,33.5,30.03,ENE,66,0.0,3.0,23,0.00,,,0.00,WeatherDisplay:10.37,2013-09-14 23:53:00,
2013-09-14 16:58:00,73.4,33.3,30.03,NNE,26,0.0,0.0,23,0.00,,,0.00,WeatherDisplay:10.37,2013-09-14 23:58:00,
2013-09-14 17:03:00,73.4,33.3,30.03,ENE,62,0.0,0.0,23,0.00,,,0.00,WeatherDisplay:10.37,2013-09-15 00:03:00,
2013-09-14 17:08:00,73.2,33.2,30.03,East,96,0.0,0.0,23,0.00,,,0.00,WeatherDisplay:10.37,2013-09-15 00:08:00,
2013-09-14 17:13:00,73.2,34.2,30.03,WSW,240,3.0,4.0,24,0.00,,,0.00,WeatherDisplay:10.37,2013-09-15 00:13:00,
2013-09-14 17:18:00,73.6,33.5,30.03,West,260,2.0,5.0,23,0.00,,,0.00,WeatherDisplay:10.37,2013-09-15 00:18:00,
2013-09-14 17:23:00,73.9,33.8,30.03,SW,233,2.0,6.0,23,0.00,,,0.00,WeatherDisplay:10.37,2013-09-15 00:23:00,
2013-09-14 17:28:00,74.1,33.9,30.03,SW,229,3.0,6.0,23,0.00,,,0.00,WeatherDisplay:10.37,2013-09-15 00:28:00,
2013-09-14 17:33:00,74.1,33.9,30.03,SW,223,3.0,6.0,23,0.00,,,0.00,WeatherDisplay:10.37,2013-09-15 00:33:00,
2013-09-14 17:38:00,73.9,33.8,30.03,SW,220,3.0,6.0,23,0.00,,,0.00,WeatherDisplay:10.37,2013-09-15 00:38:00,
2013-09-14 17:43:00,73.9,33.8,30.35,SW,215,2.0,4.0,23,0.00,,,0.00,WeatherDisplay:10.37,2013-09-15 00:43:00,
2013-09-14 17:53:00,73.5,33.4,30.35,SW,224,3.0,6.0,23,0.00,,,0.00,WeatherDisplay:10.37,2013-09-15 00:53:00,
2013-09-14 18:03:00,72.8,33.9,30.35,SW,214,2.0,6.0,24,0.00,,,0.00,WeatherDisplay:10.37,2013-09-15 01:03:00,
2013-09-14 18:08:00,72.5,33.6,30.35,SSW,207,5.0,6.0,24,0.00,,,0.00,WeatherDisplay:10.37,2013-09-15 01:08:00,
2013-09-14 18:13:00,72.1,33.3,30.35,SW,215,3.0,6.0,24,0.00,,,0.00,WeatherDisplay:10.37,2013-09-15 01:13:00,
2013-09-14 18:18:00,72.0,33.2,30.35,SSW,213,0.0,4.0,24,0.00,,,0.00,WeatherDisplay:10.37,2013-09-15 01:18:00,
2013-09-14 18:23:00,71.5,32.8,30.35,SW,217,0.0,6.0,24,0.00,,,0.00,WeatherDisplay:10.37,2013-09-15 01:23:00,
2013-09-14 18:28:00,71.1,33.5,30.35,SW,226,2.0,5.0,25,0.00,,,0.00,WeatherDisplay:10.37,2013-09-15 01:28:00,
2013-09-14 18:33:00,70.9,33.3,30.35,SW,227,3.0,6.0,25,0.00,,,0.00,WeatherDisplay:10.37,2013-09-15 01:33:00,
2013-09-14 18:38:00,70.3,33.8,30.35,WSW,237,1.0,6.0,26,0.00,,,0.00,WeatherDisplay:10.37,2013-09-15 01:38:00,
2013-09-14 18:43:00,70.0,33.5,30.35,WSW,247,0.0,4.0,26,0.00,,,0.00,WeatherDisplay:10.37,2013-09-15 01:43:00,
2013-09-14 18:53:00,68.8,34.4,30.35,WSW,249,1.0,5.0,28,0.00,,,0.00,WeatherDisplay:10.37,2013-09-15 01:53:00,
2013-09-14 18:58:00,68.5,34.0,30.35,SW,233,1.0,3.0,28,0.00,,,0.00,WeatherDisplay:10.37,2013-09-15 01:58:00,
2013-09-14 19:03:00,68.0,34.5,30.35,SW,234,0.0,0.0,29,0.00,,,0.00,WeatherDisplay:10.37,2013-09-15 02:03:00,
2013-09-14 19:08:00,67.5,34.9,30.35,SW,234,0.0,0.0,30,0.00,,,0.00,WeatherDisplay:10.37,2013-09-15 02:08:00,
2013-09-14 19:13:00,67.0,35.3,30.35,SW,234,0.0,0.0,31,0.00,,,0.00,WeatherDisplay:10.37,2013-09-15 02:13:00,
2013-09-14 19:23:00,66.4,36.4,30.35,WSW,240,0.0,0.0,33,0.00,,,0.00,WeatherDisplay:10.37,2013-09-15 02:23:00,
2013-09-14 19:28:00,65.9,36.0,30.35,WSW,245,0.0,0.0,33,0.00,,,0.00,WeatherDisplay:10.37,2013-09-15 02:28:00,
2013-09-14 19:33:00,65.5,36.4,30.35,WSW,245,0.0,0.0,34,0.00,,,0.00,WeatherDisplay:10.37,2013-09-15 02:33:00,
2013-09-14 19:43:00,65.1,36.8,30.35,WSW,245,0.0,0.0,35,0.00,,,0.00,WeatherDisplay:10.37,2013-09-15 02:43:00,
2013-09-14 19:53:00,64.8,37.9,30.35,WSW,245,0.0,0.0,37,0.00,,,0.00,WeatherDisplay:10.37,2013-09-15 02:53:00,
2013-09-14 19:58:00,64.6,38.4,30.35,WSW,245,0.0,0.0,38,0.00,,,0.00,WeatherDisplay:10.37,2013-09-15 02:58:00,
2013-09-14 20:03:00,64.4,38.2,30.35,WSW,245,0.0,0.0,38,0.00,,,0.00,WeatherDisplay:10.37,2013-09-15 03:03:00,
2013-09-14 20:08:00,64.0,37.9,30.35,WSW,247,0.0,0.0,38,0.00,,,0.00,WeatherDisplay:10.37,2013-09-15 03:08:00,
2013-09-14 20:13:00,63.8,37.7,30.35,WSW,249,0.0,0.0,38,0.00,,,0.00,WeatherDisplay:10.37,2013-09-15 03:13:00,
2013-09-14 20:18:00,63.7,38.2,30.35,WSW,249,0.0,0.0,39,0.00,,,0.00,WeatherDisplay:10.37,2013-09-15 03:18:00,
2013-09-14 20:23:00,63.7,38.9,30.35,WSW,249,0.0,0.0,40,0.00,,,0.00,WeatherDisplay:10.37,2013-09-15 03:23:00,
2013-09-14 20:28:00,63.5,38.7,30.35,WSW,249,0.0,0.0,40,0.00,,,0.00,WeatherDisplay:10.37,2013-09-15 03:28:00,
2013-09-14 20:33:00,63.3,38.6,30.35,WSW,249,0.0,0.0,40,0.00,,,0.00,WeatherDisplay:10.37,2013-09-15 03:33:00,
2013-09-14 20:38:00,63.1,37.8,30.35,WSW,253,0.0,0.0,39,0.00,,,0.00,WeatherDisplay:10.37,2013-09-15 03:38:00,
2013-09-14 20:43:00,63.0,37.6,30.35,West,268,0.0,0.0,39,0.00,,,0.00,WeatherDisplay:10.37,2013-09-15 03:43:00,
2013-09-14 20:48:00,63.0,36.9,30.35,NW,326,0.0,0.0,38,0.00,,,0.00,WeatherDisplay:10.37,2013-09-15 03:48:00,
2013-09-14 20:53:00,63.0,36.9,30.35,North,6,0.0,0.0,38,0.00,,,0.00,WeatherDisplay:10.37,2013-09-15 03:53:00,
2013-09-14 21:03:00,63.0,36.3,30.35,North,5,0.0,0.0,37,0.00,,,0.00,WeatherDisplay:10.37,2013-09-15 04:03:00,
2013-09-14 21:08:00,63.0,36.3,30.35,North,7,0.0,0.0,37,0.00,,,0.00,WeatherDisplay:10.37,2013-09-15 04:08:00,
2013-09-14 21:13:00,62.9,34.8,30.35,North,8,0.0,0.0,35,0.00,,,0.00,WeatherDisplay:10.37,2013-09-15 04:13:00,
2013-09-14 21:18:00,62.6,34.5,30.35,North,9,0.0,0.0,35,0.00,,,0.00,WeatherDisplay:10.37,2013-09-15 04:18:00,
2013-09-14 21:23:00,62.4,34.4,30.35,North,9,0.0,0.0,35,0.00,,,0.00,WeatherDisplay:10.37,2013-09-15 04:23:00,
2013-09-14 21:28:00,62.4,34.4,30.35,North,8,0.0,0.0,35,0.00,,,0.00,WeatherDisplay:10.37,2013-09-15 04:28:00,
2013-09-14 21:33:00,62.4,34.4,30.35,North,8,0.0,0.0,35,0.00,,,0.00,WeatherDisplay:10.37,2013-09-15 04:33:00,
2013-09-14 21:43:00,62.2,33.5,30.35,North,9,0.0,0.0,34,0.00,,,0.00,WeatherDisplay:10.37,2013-09-15 04:43:00,
2013-09-14 21:48:00,62.1,33.3,30.35,North,8,0.0,0.0,34,0.00,,,0.00,WeatherDisplay:10.37,2013-09-15 04:48:00,
2013-09-14 21:53:00,62.1,33.3,30.35,North,8,0.0,0.0,34,0.00,,,0.00,WeatherDisplay:10.37,2013-09-15 04:53:00,
2013-09-14 21:58:00,61.9,33.2,30.35,North,8,0.0,0.0,34,0.00,,,0.00,WeatherDisplay:10.37,2013-09-15 04:58:00,
2013-09-14 22:03:00,61.7,33.0,30.35,North,8,0.0,0.0,34,0.00,,,0.00,WeatherDisplay:10.37,2013-09-15 05:03:00,
2013-09-14 22:08:00,61.7,33.0,30.35,North,9,0.0,0.0,34,0.00,,,0.00,WeatherDisplay:10.37,2013-09-15 05:08:00,
2013-09-14 22:13:00,61.5,32.9,30.35,North,8,0.0,0.0,34,0.00,,,0.00,WeatherDisplay:10.37,2013-09-15 05:13:00,
2013-09-14 22:18:00,61.3,32.7,30.35,North,8,0.0,0.0,34,0.00,,,0.00,WeatherDisplay:10.37,2013-09-15 05:18:00,
2013-09-14 22:23:00,61.1,32.5,30.35,North,9,0.0,0.0,34,0.00,,,0.00,WeatherDisplay:10.37,2013-09-15 05:23:00,
2013-09-14 22:28:00,61.0,32.4,30.35,North,9,0.0,0.0,34,0.00,,,0.00,WeatherDisplay:10.37,2013-09-15 05:28:00,
2013-09-14 22:33:00,60.6,32.1,30.35,North,8,0.0,0.0,34,0.00,,,0.00,WeatherDisplay:10.37,2013-09-15 05:33:00,
2013-09-14 22:38:00,60.6,32.1,30.35,North,8,0.0,0.0,34,0.00,,,0.00,WeatherDisplay:10.37,2013-09-15 05:38:00,
2013-09-14 22:43:00,60.6,32.1,30.35,North,8,0.0,0.0,34,0.00,,,0.00,WeatherDisplay:10.37,2013-09-15 05:43:00,
2013-09-14 22:48:00,60.6,32.1,30.35,North,8,0.0,0.0,34,0.00,,,0.00,WeatherDisplay:10.37,2013-09-15 05:48:00,
2013-09-14 22:53:00,60.6,32.1,30.35,North,8,0.0,0.0,34,0.00,,,0.00,WeatherDisplay:10.37,2013-09-15 05:53:00,
2013-09-14 22:58:00,59.4,31.7,30.35,North,8,0.0,0.0,35,0.00,,,0.00,WeatherDisplay:10.37,2013-09-15 05:58:00,
2013-09-14 23:03:00,59.4,31.7,30.35,North,8,0.0,0.0,35,0.00,,,0.00,WeatherDisplay:10.37,2013-09-15 06:03:00,
2013-09-14 23:08:00,59.4,31.7,30.35,North,8,0.0,0.0,35,0.00,,,0.00,WeatherDisplay:10.37,2013-09-15 06:08:00,
2013-09-14 23:13:00,59.4,31.7,30.35,North,8,0.0,0.0,35,0.00,,,0.00,WeatherDisplay:10.37,2013-09-15 06:13:00,
2013-09-14 23:18:00,59.4,31.7,30.35,North,8,0.0,0.0,35,0.00,,,0.00,WeatherDisplay:10.37,2013-09-15 06:18:00,
2013-09-14 23:23:00,58.5,31.6,30.35,North,8,0.0,0.0,36,0.00,,,0.00,WeatherDisplay:10.37,2013-09-15 06:23:00,
2013-09-14 23:28:00,58.5,31.6,30.35,North,8,0.0,0.0,36,0.00,,,0.00,WeatherDisplay:10.37,2013-09-15 06:28:00,
2013-09-14 23:33:00,58.5,31.6,30.35,North,8,0.0,0.0,36,0.00,,,0.00,WeatherDisplay:10.37,2013-09-15 06:33:00,
2013-09-14 23:38:00,58.5,31.6,30.35,North,8,0.0,0.0,36,0.00,,,0.00,WeatherDisplay:10.37,2013-09-15 06:38:00,
2013-09-14 23:43:00,58.5,31.6,30.35,North,8,0.0,0.0,36,0.00,,,0.00,WeatherDisplay:10.37,2013-09-15 06:43:00,
2013-09-14 23:48:00,58.5,31.6,30.35,North,8,0.0,0.0,36,0.00,,,0.00,WeatherDisplay:10.37,2013-09-15 06:48:00,
2013-09-14 23:53:00,58.5,31.6,30.35,North,8,0.0,0.0,36,0.00,,,0.00,WeatherDisplay:10.37,2013-09-15 06:53:00,
2013-09-14 23:58:00,58.5,31.6,30.35,North,8,0.0,0.0,36,0.00,,,0.00,WeatherDisplay:10.37,2013-09-15 06:58:00,